sensor_id;sensor_type;location;lat;lon;timestamp;pressure;altitude;pressure_sealevel;temperature;humidity
21203;BME280;10759;51.982;9.232;2024-01-15T00:00:06;98643.03;;;1.05;100.00
21203;BME280;10759;51.982;9.232;2024-01-15T00:02:38;98654.38;;;1.09;100.00
21203;BME280;10759;51.982;9.232;2024-01-15T00:05:06;98540.41;;;0.64;100.00
21203;BME280;10759;51.982;9.232;2024-01-15T00:07:37;98647.09;;;1.17;100.00
21203;BME280;10759;51.982;9.232;2024-01-15T00:10:09;98615.16;;;0.95;100.00
21203;BME280;10759;51.982;9.232;2024-01-15T00:12:40;98649.00;;;1.12;100.00
21203;BME280;10759;51.982;9.232;2024-01-15T00:15:09;98632.13;;;1.17;100.00
21203;BME280;10759;51.982;9.232;2024-01-15T00:17:37;98637.88;;;1.33;100.00
21203;BME280;10759;51.982;9.232;2024-01-15T00:20:06;98641.28;;;1.37;100.00
21203;BME280;10759;51.982;9.232;2024-01-15T00:22:37;98625.28;;;1.43;100.00
21203;BME280;10759;51.982;9.232;2024-01-15T00:25:05;98630.09;;;1.27;100.00
21203;BME280;10759;51.982;9.232;2024-01-15T00:27:38;98638.34;;;1.16;100.00
21203;BME280;10759;51.982;9.232;2024-01-15T00:30:06;98629.84;;;1.36;100.00
21203;BME280;10759;51.982;9.232;2024-01-15T00:32:35;98629.06;;;1.33;100.00
21203;BME280;10759;51.982;9.232;2024-01-15T00:35:04;98538.25;;;0.79;100.00
21203;BME280;10759;51.982;9.232;2024-01-15T00:37:33;98633.44;;;1.34;100.00
21203;BME280;10759;51.982;9.232;2024-01-15T00:40:01;98629.66;;;1.42;100.00
21203;BME280;10759;51.982;9.232;2024-01-15T00:42:29;98613.50;;;1.23;100.00
21203;BME280;10759;51.982;9.232;2024-01-15T00:44:58;98627.47;;;1.27;100.00
21203;BME280;10759;51.982;9.232;2024-01-15T00:47:26;98607.22;;;1.27;100.00
21203;BME280;10759;51.982;9.232;2024-01-15T00:49:54;98613.44;;;1.25;100.00
21203;BME280;10759;51.982;9.232;2024-01-15T00:52:22;98585.25;;;1.27;100.00
21203;BME280;10759;51.982;9.232;2024-01-15T00:54:50;98606.88;;;1.40;100.00
21203;BME280;10759;51.982;9.232;2024-01-15T00:57:18;98612.84;;;1.46;100.00
21203;BME280;10759;51.982;9.232;2024-01-15T00:59:47;98609.97;;;1.54;100.00
21203;BME280;10759;51.982;9.232;2024-01-15T01:02:17;98611.97;;;1.46;100.00
21203;BME280;10759;51.982;9.232;2024-01-15T01:04:45;98617.75;;;1.29;100.00
21203;BME280;10759;51.982;9.232;2024-01-15T01:07:13;98603.34;;;1.10;100.00
21203;BME280;10759;51.982;9.232;2024-01-15T01:09:44;98582.59;;;0.96;100.00
21203;BME280;10759;51.982;9.232;2024-01-15T01:12:13;98586.59;;;1.11;100.00
21203;BME280;10759;51.982;9.232;2024-01-15T01:14:41;98602.13;;;1.21;100.00
21203;BME280;10759;51.982;9.232;2024-01-15T01:17:09;98624.50;;;1.38;100.00
21203;BME280;10759;51.982;9.232;2024-01-15T01:19:40;98620.28;;;1.32;100.00
21203;BME280;10759;51.982;9.232;2024-01-15T01:22:11;98611.47;;;1.33;100.00
21203;BME280;10759;51.982;9.232;2024-01-15T01:24:39;98612.00;;;1.13;100.00
21203;BME280;10759;51.982;9.232;2024-01-15T01:27:07;98603.84;;;1.22;100.00
21203;BME280;10759;51.982;9.232;2024-01-15T01:29:35;98596.88;;;1.20;100.00
21203;BME280;10759;51.982;9.232;2024-01-15T01:32:03;98583.19;;;1.07;100.00
21203;BME280;10759;51.982;9.232;2024-01-15T01:34:32;98593.47;;;1.16;100.00
21203;BME280;10759;51.982;9.232;2024-01-15T01:37:02;98605.50;;;1.26;100.00
21203;BME280;10759;51.982;9.232;2024-01-15T01:39:30;98609.78;;;1.31;100.00
21203;BME280;10759;51.982;9.232;2024-01-15T01:41:58;98599.41;;;1.24;100.00
21203;BME280;10759;51.982;9.232;2024-01-15T01:44:26;98617.72;;;1.31;100.00
21203;BME280;10759;51.982;9.232;2024-01-15T01:46:55;98569.97;;;1.09;100.00
21203;BME280;10759;51.982;9.232;2024-01-15T01:49:24;98525.19;;;0.74;100.00
21203;BME280;10759;51.982;9.232;2024-01-15T01:51:53;98600.19;;;1.28;100.00
21203;BME280;10759;51.982;9.232;2024-01-15T01:54:24;98578.59;;;1.14;100.00
21203;BME280;10759;51.982;9.232;2024-01-15T01:56:53;98595.81;;;1.27;100.00
21203;BME280;10759;51.982;9.232;2024-01-15T01:59:22;98585.00;;;1.36;100.00
21203;BME280;10759;51.982;9.232;2024-01-15T02:01:51;98601.66;;;1.38;100.00
21203;BME280;10759;51.982;9.232;2024-01-15T02:04:22;98603.94;;;1.50;100.00
21203;BME280;10759;51.982;9.232;2024-01-15T02:06:51;98605.91;;;1.42;100.00
21203;BME280;10759;51.982;9.232;2024-01-15T02:09:20;98603.59;;;1.32;100.00
21203;BME280;10759;51.982;9.232;2024-01-15T02:11:50;98595.34;;;1.42;100.00
21203;BME280;10759;51.982;9.232;2024-01-15T02:14:18;98594.94;;;1.26;100.00
21203;BME280;10759;51.982;9.232;2024-01-15T02:16:46;98576.56;;;1.23;100.00
21203;BME280;10759;51.982;9.232;2024-01-15T02:19:15;98604.53;;;1.29;100.00
21203;BME280;10759;51.982;9.232;2024-01-15T02:21:44;98574.94;;;1.18;100.00
21203;BME280;10759;51.982;9.232;2024-01-15T02:24:13;98597.25;;;1.37;100.00
21203;BME280;10759;51.982;9.232;2024-01-15T02:26:41;98593.91;;;1.32;100.00
21203;BME280;10759;51.982;9.232;2024-01-15T02:29:10;98585.88;;;1.35;100.00
21203;BME280;10759;51.982;9.232;2024-01-15T02:31:39;98587.00;;;1.28;100.00
21203;BME280;10759;51.982;9.232;2024-01-15T02:34:07;98587.06;;;1.25;100.00
21203;BME280;10759;51.982;9.232;2024-01-15T02:36:35;98584.16;;;1.34;100.00
21203;BME280;10759;51.982;9.232;2024-01-15T02:39:03;98587.16;;;1.22;100.00
21203;BME280;10759;51.982;9.232;2024-01-15T02:41:32;98599.88;;;1.39;100.00
21203;BME280;10759;51.982;9.232;2024-01-15T02:44:00;98579.25;;;1.22;100.00
21203;BME280;10759;51.982;9.232;2024-01-15T02:46:28;98602.31;;;1.45;100.00
21203;BME280;10759;51.982;9.232;2024-01-15T02:48:56;98596.28;;;1.41;100.00
21203;BME280;10759;51.982;9.232;2024-01-15T02:51:24;98596.28;;;1.41;100.00
21203;BME280;10759;51.982;9.232;2024-01-15T02:53:52;98596.31;;;1.40;100.00
21203;BME280;10759;51.982;9.232;2024-01-15T02:56:20;98598.66;;;1.50;100.00
21203;BME280;10759;51.982;9.232;2024-01-15T02:58:49;98598.81;;;1.44;100.00
21203;BME280;10759;51.982;9.232;2024-01-15T03:01:18;98588.88;;;1.23;100.00
21203;BME280;10759;51.982;9.232;2024-01-15T03:03:46;98600.03;;;1.33;100.00
21203;BME280;10759;51.982;9.232;2024-01-15T03:06:14;98604.00;;;1.47;100.00
21203;BME280;10759;51.982;9.232;2024-01-15T03:08:42;98591.38;;;1.27;100.00
21203;BME280;10759;51.982;9.232;2024-01-15T03:11:10;98607.72;;;1.40;100.00
21203;BME280;10759;51.982;9.232;2024-01-15T03:13:38;98600.91;;;1.33;100.00
21203;BME280;10759;51.982;9.232;2024-01-15T03:16:07;98607.81;;;1.37;100.00
21203;BME280;10759;51.982;9.232;2024-01-15T03:18:35;98604.28;;;1.38;100.00
21203;BME280;10759;51.982;9.232;2024-01-15T03:21:04;98587.84;;;1.28;100.00
21203;BME280;10759;51.982;9.232;2024-01-15T03:23:33;98598.81;;;1.44;100.00
21203;BME280;10759;51.982;9.232;2024-01-15T03:26:00;98595.22;;;1.47;100.00
21203;BME280;10759;51.982;9.232;2024-01-15T03:28:28;98590.38;;;1.33;100.00
21203;BME280;10759;51.982;9.232;2024-01-15T03:30:57;98580.56;;;1.37;100.00
21203;BME280;10759;51.982;9.232;2024-01-15T03:33:27;98570.28;;;1.27;100.00
21203;BME280;10759;51.982;9.232;2024-01-15T03:35:55;98573.75;;;1.29;100.00
21203;BME280;10759;51.982;9.232;2024-01-15T03:38:23;98563.97;;;1.33;100.00
21203;BME280;10759;51.982;9.232;2024-01-15T03:40:51;98566.25;;;1.45;100.00
21203;BME280;10759;51.982;9.232;2024-01-15T03:43:19;98579.28;;;1.50;100.00
21203;BME280;10759;51.982;9.232;2024-01-15T03:45:47;98582.63;;;1.57;100.00
21203;BME280;10759;51.982;9.232;2024-01-15T03:48:15;98591.41;;;1.57;100.00
21203;BME280;10759;51.982;9.232;2024-01-15T03:50:44;98592.72;;;1.42;100.00
21203;BME280;10759;51.982;9.232;2024-01-15T03:53:12;98579.72;;;1.36;100.00
21203;BME280;10759;51.982;9.232;2024-01-15T03:55:40;98575.19;;;1.40;100.00
21203;BME280;10759;51.982;9.232;2024-01-15T03:58:08;98585.09;;;1.33;100.00
21203;BME280;10759;51.982;9.232;2024-01-15T04:00:36;98584.94;;;1.38;100.00
21203;BME280;10759;51.982;9.232;2024-01-15T04:03:05;98590.03;;;1.13;100.00
21203;BME280;10759;51.982;9.232;2024-01-15T04:05:33;98581.03;;;1.21;100.00
21203;BME280;10759;51.982;9.232;2024-01-15T04:08:03;98585.34;;;1.24;100.00
21203;BME280;10759;51.982;9.232;2024-01-15T04:10:31;98583.66;;;1.21;100.00
21203;BME280;10759;51.982;9.232;2024-01-15T04:13:00;98591.88;;;1.40;100.00
21203;BME280;10759;51.982;9.232;2024-01-15T04:15:28;98580.06;;;1.24;100.00
21203;BME280;10759;51.982;9.232;2024-01-15T04:17:56;98593.72;;;1.38;100.00
21203;BME280;10759;51.982;9.232;2024-01-15T04:20:25;98586.22;;;1.23;100.00
21203;BME280;10759;51.982;9.232;2024-01-15T04:22:53;98593.34;;;1.21;100.00
21203;BME280;10759;51.982;9.232;2024-01-15T04:25:22;98599.00;;;1.38;100.00
21203;BME280;10759;51.982;9.232;2024-01-15T04:27:50;98581.97;;;1.19;100.00
21203;BME280;10759;51.982;9.232;2024-01-15T04:30:18;98584.28;;;1.29;100.00
21203;BME280;10759;51.982;9.232;2024-01-15T04:32:46;98584.34;;;1.28;100.00
21203;BME280;10759;51.982;9.232;2024-01-15T04:35:14;98581.88;;;1.22;100.00
21203;BME280;10759;51.982;9.232;2024-01-15T04:37:42;98580.78;;;1.29;100.00
21203;BME280;10759;51.982;9.232;2024-01-15T04:40:10;98581.44;;;1.37;100.00
21203;BME280;10759;51.982;9.232;2024-01-15T04:42:40;98571.91;;;1.32;100.00
21203;BME280;10759;51.982;9.232;2024-01-15T04:45:08;98584.25;;;1.31;100.00
21203;BME280;10759;51.982;9.232;2024-01-15T04:47:36;98583.81;;;1.46;100.00
21203;BME280;10759;51.982;9.232;2024-01-15T04:50:05;98565.94;;;1.25;100.00
21203;BME280;10759;51.982;9.232;2024-01-15T04:52:33;98573.63;;;1.33;100.00
21203;BME280;10759;51.982;9.232;2024-01-15T04:55:01;98555.22;;;1.31;100.00
21203;BME280;10759;51.982;9.232;2024-01-15T04:57:29;98568.69;;;1.22;100.00
21203;BME280;10759;51.982;9.232;2024-01-15T04:59:58;98563.78;;;1.39;100.00
21203;BME280;10759;51.982;9.232;2024-01-15T05:02:26;98549.00;;;1.34;100.00
21203;BME280;10759;51.982;9.232;2024-01-15T05:04:54;98545.53;;;1.32;100.00
21203;BME280;10759;51.982;9.232;2024-01-15T05:07:22;98549.66;;;1.40;100.00
21203;BME280;10759;51.982;9.232;2024-01-15T05:09:50;98539.19;;;1.37;100.00
21203;BME280;10759;51.982;9.232;2024-01-15T05:12:18;98558.34;;;1.45;100.00
21203;BME280;10759;51.982;9.232;2024-01-15T05:14:46;98515.09;;;1.20;100.00
21203;BME280;10759;51.982;9.232;2024-01-15T05:17:15;98555.03;;;1.37;100.00
21203;BME280;10759;51.982;9.232;2024-01-15T05:19:43;98556.47;;;1.47;100.00
21203;BME280;10759;51.982;9.232;2024-01-15T05:22:12;98552.63;;;1.29;100.00
21203;BME280;10759;51.982;9.232;2024-01-15T05:24:40;98551.78;;;1.29;100.00
21203;BME280;10759;51.982;9.232;2024-01-15T05:27:07;98539.66;;;1.22;100.00
21203;BME280;10759;51.982;9.232;2024-01-15T05:29:35;98538.56;;;1.29;100.00
21203;BME280;10759;51.982;9.232;2024-01-15T05:32:03;98534.13;;;1.31;100.00
21203;BME280;10759;51.982;9.232;2024-01-15T05:34:33;98537.38;;;1.39;100.00
21203;BME280;10759;51.982;9.232;2024-01-15T05:37:01;98519.84;;;1.38;100.00
21203;BME280;10759;51.982;9.232;2024-01-15T05:39:29;98545.13;;;1.45;100.00
21203;BME280;10759;51.982;9.232;2024-01-15T05:42:01;98531.19;;;1.40;100.00
21203;BME280;10759;51.982;9.232;2024-01-15T05:44:29;98548.50;;;1.50;100.00
21203;BME280;10759;51.982;9.232;2024-01-15T05:46:57;98541.66;;;1.43;100.00
21203;BME280;10759;51.982;9.232;2024-01-15T05:49:25;98541.22;;;1.29;100.00
21203;BME280;10759;51.982;9.232;2024-01-15T05:51:54;98541.38;;;1.23;100.00
21203;BME280;10759;51.982;9.232;2024-01-15T05:54:22;98479.66;;;0.99;100.00
21203;BME280;10759;51.982;9.232;2024-01-15T05:56:51;98534.13;;;1.31;100.00
21203;BME280;10759;51.982;9.232;2024-01-15T05:59:19;98538.94;;;1.46;100.00
21203;BME280;10759;51.982;9.232;2024-01-15T06:01:47;98541.97;;;1.33;100.00
21203;BME280;10759;51.982;9.232;2024-01-15T06:04:15;98551.88;;;1.26;100.00
21203;BME280;10759;51.982;9.232;2024-01-15T06:06:43;98533.47;;;1.23;100.00
21203;BME280;10759;51.982;9.232;2024-01-15T06:09:13;98525.03;;;1.10;100.00
21203;BME280;10759;51.982;9.232;2024-01-15T06:11:41;98549.84;;;1.34;100.00
21203;BME280;10759;51.982;9.232;2024-01-15T06:14:09;98549.00;;;1.34;100.00
21203;BME280;10759;51.982;9.232;2024-01-15T06:16:37;98537.84;;;1.24;100.00
21203;BME280;10759;51.982;9.232;2024-01-15T06:19:05;98542.16;;;1.26;100.00
21203;BME280;10759;51.982;9.232;2024-01-15T06:21:33;98534.13;;;1.31;100.00
21203;BME280;10759;51.982;9.232;2024-01-15T06:24:01;98534.22;;;1.28;100.00
21203;BME280;10759;51.982;9.232;2024-01-15T06:26:30;98538.00;;;1.18;100.00
21203;BME280;10759;51.982;9.232;2024-01-15T06:28:58;98538.81;;;1.21;100.00
21203;BME280;10759;51.982;9.232;2024-01-15T06:31:26;98532.47;;;1.27;100.00
21203;BME280;10759;51.982;9.232;2024-01-15T06:33:55;98515.00;;;1.23;100.00
21203;BME280;10759;51.982;9.232;2024-01-15T06:36:23;98530.28;;;1.41;100.00
21203;BME280;10759;51.982;9.232;2024-01-15T06:38:51;98547.31;;;1.31;100.00
21203;BME280;10759;51.982;9.232;2024-01-15T06:41:19;98541.94;;;1.34;100.00
21203;BME280;10759;51.982;9.232;2024-01-15T06:43:48;98548.69;;;1.13;100.00
21203;BME280;10759;51.982;9.232;2024-01-15T06:46:19;98541.72;;;1.11;100.00
21203;BME280;10759;51.982;9.232;2024-01-15T06:48:48;98536.09;;;1.23;100.00
21203;BME280;10759;51.982;9.232;2024-01-15T06:51:16;98536.09;;;1.23;100.00
21203;BME280;10759;51.982;9.232;2024-01-15T06:53:44;98530.03;;;1.21;100.00
21203;BME280;10759;51.982;9.232;2024-01-15T06:56:12;98543.03;;;1.27;100.00
21203;BME280;10759;51.982;9.232;2024-01-15T06:58:40;98548.31;;;1.27;100.00
21203;BME280;10759;51.982;9.232;2024-01-15T07:01:09;98541.34;;;1.24;100.00
21203;BME280;10759;51.982;9.232;2024-01-15T07:03:37;98542.69;;;1.38;100.00
21203;BME280;10759;51.982;9.232;2024-01-15T07:06:06;98547.53;;;1.23;100.00
21203;BME280;10759;51.982;9.232;2024-01-15T07:08:34;98544.78;;;1.28;100.00
21203;BME280;10759;51.982;9.232;2024-01-15T07:11:03;98543.72;;;1.34;100.00
21203;BME280;10759;51.982;9.232;2024-01-15T07:13:31;98530.88;;;1.21;100.00
21203;BME280;10759;51.982;9.232;2024-01-15T07:15:59;98542.25;;;1.23;100.00
21203;BME280;10759;51.982;9.232;2024-01-15T07:18:29;98548.06;;;1.35;100.00
21203;BME280;10759;51.982;9.232;2024-01-15T07:20:57;98540.34;;;1.28;100.00
21203;BME280;10759;51.982;9.232;2024-01-15T07:23:25;98540.47;;;1.24;100.00
21203;BME280;10759;51.982;9.232;2024-01-15T07:25:56;98547.53;;;1.23;100.00
21203;BME280;10759;51.982;9.232;2024-01-15T07:28:24;98550.06;;;1.28;100.00
21203;BME280;10759;51.982;9.232;2024-01-15T07:30:52;98481.56;;;0.94;100.00
21203;BME280;10759;51.982;9.232;2024-01-15T07:33:20;98548.41;;;1.24;100.00
21203;BME280;10759;51.982;9.232;2024-01-15T07:35:50;98560.75;;;1.23;100.00
21203;BME280;10759;51.982;9.232;2024-01-15T07:38:20;98554.41;;;1.29;100.00
21203;BME280;10759;51.982;9.232;2024-01-15T07:40:49;98552.16;;;1.15;100.00
21203;BME280;10759;51.982;9.232;2024-01-15T07:43:17;98547.72;;;1.17;100.00
21203;BME280;10759;51.982;9.232;2024-01-15T07:45:45;98552.75;;;1.25;100.00
21203;BME280;10759;51.982;9.232;2024-01-15T07:48:13;98560.03;;;1.17;100.00
21203;BME280;10759;51.982;9.232;2024-01-15T07:50:41;98567.75;;;1.23;100.00
21203;BME280;10759;51.982;9.232;2024-01-15T07:53:14;98560.97;;;1.16;100.00
21203;BME280;10759;51.982;9.232;2024-01-15T07:55:42;98575.84;;;1.18;100.00
21203;BME280;10759;51.982;9.232;2024-01-15T07:58:12;98568.59;;;1.25;100.00
21203;BME280;10759;51.982;9.232;2024-01-15T08:00:42;98504.41;;;0.95;100.00
21203;BME280;10759;51.982;9.232;2024-01-15T08:03:11;98553.84;;;1.18;100.00
21203;BME280;10759;51.982;9.232;2024-01-15T08:05:39;98576.28;;;1.33;100.00
21203;BME280;10759;51.982;9.232;2024-01-15T08:08:08;98573.81;;;1.28;100.00
21203;BME280;10759;51.982;9.232;2024-01-15T08:10:39;98574.94;;;1.18;100.00
21203;BME280;10759;51.982;9.232;2024-01-15T08:13:07;98580.91;;;1.26;100.00
21203;BME280;10759;51.982;9.232;2024-01-15T08:15:36;98572.25;;;1.21;100.00
21203;BME280;10759;51.982;9.232;2024-01-15T08:18:04;98573.59;;;1.34;100.00
21203;BME280;10759;51.982;9.232;2024-01-15T08:20:32;98573.75;;;1.29;100.00
21203;BME280;10759;51.982;9.232;2024-01-15T08:23:00;98566.75;;;1.28;100.00
21203;BME280;10759;51.982;9.232;2024-01-15T08:25:28;98568.53;;;1.28;100.00
21203;BME280;10759;51.982;9.232;2024-01-15T08:27:58;98574.34;;;1.39;100.00
21203;BME280;10759;51.982;9.232;2024-01-15T08:30:26;98566.63;;;1.33;100.00
21203;BME280;10759;51.982;9.232;2024-01-15T08:32:55;98572.66;;;1.37;100.00
21203;BME280;10759;51.982;9.232;2024-01-15T08:35:33;98572.78;;;1.32;100.00
21203;BME280;10759;51.982;9.232;2024-01-15T08:38:01;98559.69;;;1.29;100.00
21203;BME280;10759;51.982;9.232;2024-01-15T08:40:29;98562.81;;;1.42;100.00
21203;BME280;10759;51.982;9.232;2024-01-15T08:42:58;98542.03;;;1.31;100.00
21203;BME280;10759;51.982;9.232;2024-01-15T08:45:26;98572.88;;;1.29;100.00
21203;BME280;10759;51.982;9.232;2024-01-15T08:47:57;98569.03;;;1.41;100.00
21203;BME280;10759;51.982;9.232;2024-01-15T08:50:25;98557.63;;;1.39;100.00
21203;BME280;10759;51.982;9.232;2024-01-15T08:52:53;98539.41;;;1.31;100.00
21203;BME280;10759;51.982;9.232;2024-01-15T08:55:22;98568.72;;;1.50;100.00
21203;BME280;10759;51.982;9.232;2024-01-15T08:57:50;98581.06;;;1.49;100.00
21203;BME280;10759;51.982;9.232;2024-01-15T09:00:19;98567.25;;;1.41;100.00
21203;BME280;10759;51.982;9.232;2024-01-15T09:02:47;98576.16;;;1.37;100.00
21203;BME280;10759;51.982;9.232;2024-01-15T09:05:15;98577.97;;;1.35;100.00
21203;BME280;10759;51.982;9.232;2024-01-15T09:07:43;98576.06;;;1.40;100.00
21203;BME280;10759;51.982;9.232;2024-01-15T09:10:12;98575.41;;;1.32;100.00
21203;BME280;10759;51.982;9.232;2024-01-15T09:12:40;98558.00;;;1.26;100.00
21203;BME280;10759;51.982;9.232;2024-01-15T09:15:09;98577.97;;;1.35;100.00
21203;BME280;10759;51.982;9.232;2024-01-15T09:17:39;98583.44;;;1.29;100.00
21203;BME280;10759;51.982;9.232;2024-01-15T09:20:08;98585.53;;;1.47;100.00
21203;BME280;10759;51.982;9.232;2024-01-15T09:22:38;98580.91;;;1.56;100.00
21203;BME280;10759;51.982;9.232;2024-01-15T09:25:07;98582.22;;;1.70;100.00
21203;BME280;10759;51.982;9.232;2024-01-15T09:27:36;98588.59;;;1.63;100.00
21203;BME280;10759;51.982;9.232;2024-01-15T09:30:05;98576.97;;;1.69;100.00
21203;BME280;10759;51.982;9.232;2024-01-15T09:32:35;98583.88;;;1.73;100.00
21203;BME280;10759;51.982;9.232;2024-01-15T09:35:05;98589.06;;;1.76;100.00
21203;BME280;10759;51.982;9.232;2024-01-15T09:37:34;98560.13;;;1.73;100.00
21203;BME280;10759;51.982;9.232;2024-01-15T09:40:14;98575.63;;;1.56;100.00
21203;BME280;10759;51.982;9.232;2024-01-15T09:42:43;98574.06;;;1.48;100.00
21203;BME280;10759;51.982;9.232;2024-01-15T09:45:13;98571.44;;;1.48;100.00
21203;BME280;10759;51.982;9.232;2024-01-15T09:47:41;98567.41;;;1.65;100.00
21203;BME280;10759;51.982;9.232;2024-01-15T09:50:14;98576.22;;;1.65;100.00
21203;BME280;10759;51.982;9.232;2024-01-15T09:52:43;98573.59;;;1.64;100.00
21203;BME280;10759;51.982;9.232;2024-01-15T09:55:11;98578.50;;;1.48;100.00
21203;BME280;10759;51.982;9.232;2024-01-15T09:57:40;98577.69;;;1.44;100.00
21203;BME280;10759;51.982;9.232;2024-01-15T10:00:10;98568.06;;;1.14;100.00
21203;BME280;10759;51.982;9.232;2024-01-15T10:02:38;98579.09;;;1.26;100.00
21203;BME280;10759;51.982;9.232;2024-01-15T10:05:07;98578.50;;;1.48;100.00
21203;BME280;10759;51.982;9.232;2024-01-15T10:07:37;98579.94;;;1.28;100.00
21203;BME280;10759;51.982;9.232;2024-01-15T10:10:07;98573.22;;;1.17;100.00
21203;BME280;10759;51.982;9.232;2024-01-15T10:12:36;98566.78;;;1.27;100.00
21203;BME280;10759;51.982;9.232;2024-01-15T10:15:05;98563.28;;;1.26;100.00
21203;BME280;10759;51.982;9.232;2024-01-15T10:17:33;98567.59;;;1.29;100.00
21203;BME280;10759;51.982;9.232;2024-01-15T10:20:01;98562.91;;;1.39;100.00
21203;BME280;10759;51.982;9.232;2024-01-15T10:22:31;98554.31;;;1.32;100.00
21203;BME280;10759;51.982;9.232;2024-01-15T10:25:01;98565.50;;;1.40;100.00
21203;BME280;10759;51.982;9.232;2024-01-15T10:27:30;98522.38;;;1.12;100.00
21203;BME280;10759;51.982;9.232;2024-01-15T10:29:59;98532.56;;;1.24;100.00
21203;BME280;10759;51.982;9.232;2024-01-15T10:32:29;98564.28;;;1.52;100.00
21203;BME280;10759;51.982;9.232;2024-01-15T10:34:57;98567.63;;;1.57;100.00
21203;BME280;10759;51.982;9.232;2024-01-15T10:37:25;98561.41;;;1.60;100.00
21203;BME280;10759;51.982;9.232;2024-01-15T10:39:55;98559.56;;;1.62;100.00
21203;BME280;10759;51.982;9.232;2024-01-15T10:42:25;98566.22;;;1.75;100.00
21203;BME280;10759;51.982;9.232;2024-01-15T10:44:53;98569.25;;;1.91;100.00
21203;BME280;10759;51.982;9.232;2024-01-15T10:47:21;98563.75;;;1.69;100.00
21203;BME280;10759;51.982;9.232;2024-01-15T10:49:51;98566.03;;;1.81;100.00
21203;BME280;10759;51.982;9.232;2024-01-15T10:52:19;98560.97;;;1.74;100.00
21203;BME280;10759;51.982;9.232;2024-01-15T10:54:52;98554.13;;;1.68;100.00
21203;BME280;10759;51.982;9.232;2024-01-15T10:57:21;98537.63;;;1.60;100.00
21203;BME280;10759;51.982;9.232;2024-01-15T10:59:51;98553.63;;;1.83;100.00
21203;BME280;10759;51.982;9.232;2024-01-15T11:02:19;98551.53;;;1.95;100.00
21203;BME280;10759;51.982;9.232;2024-01-15T11:04:47;98554.88;;;2.00;100.00
21203;BME280;10759;51.982;9.232;2024-01-15T11:07:15;98553.28;;;1.94;100.00
21203;BME280;10759;51.982;9.232;2024-01-15T11:09:43;98550.75;;;1.91;100.00
21203;BME280;10759;51.982;9.232;2024-01-15T11:12:13;98547.25;;;1.90;100.00
21203;BME280;10759;51.982;9.232;2024-01-15T11:14:45;98555.06;;;1.93;100.00
21203;BME280;10759;51.982;9.232;2024-01-15T11:17:16;98555.56;;;1.78;100.00
21203;BME280;10759;51.982;9.232;2024-01-15T11:19:46;98559.59;;;1.90;100.00
21203;BME280;10759;51.982;9.232;2024-01-15T11:22:48;98551.38;;;1.71;100.00
21203;BME280;10759;51.982;9.232;2024-01-15T11:25:18;98555.97;;;1.64;100.00
21203;BME280;10759;51.982;9.232;2024-01-15T11:27:50;98570.25;;;1.87;100.00
21203;BME280;10759;51.982;9.232;2024-01-15T11:30:24;98565.53;;;1.97;100.00
21203;BME280;10759;51.982;9.232;2024-01-15T11:32:54;98578.03;;;1.91;100.00
21203;BME280;10759;51.982;9.232;2024-01-15T11:35:22;98559.09;;;1.77;100.00
21203;BME280;10759;51.982;9.232;2024-01-15T11:37:57;98517.72;;;1.49;100.00
21203;BME280;10759;51.982;9.232;2024-01-15T11:40:39;98571.91;;;1.89;100.00
21203;BME280;10759;51.982;9.232;2024-01-15T11:43:09;98567.84;;;1.79;100.00
21203;BME280;10759;51.982;9.232;2024-01-15T11:45:39;98566.63;;;1.89;100.00
21203;BME280;10759;51.982;9.232;2024-01-15T11:48:14;98559.16;;;1.76;100.00
21203;BME280;10759;51.982;9.232;2024-01-15T11:50:45;98567.03;;;1.77;100.00
21203;BME280;10759;51.982;9.232;2024-01-15T11:53:21;98559.31;;;1.71;100.00
21203;BME280;10759;51.982;9.232;2024-01-15T11:55:57;98547.41;;;1.58;100.00
21203;BME280;10759;51.982;9.232;2024-01-15T11:58:26;98555.47;;;1.81;100.00
21203;BME280;10759;51.982;9.232;2024-01-15T12:00:54;98548.81;;;1.96;100.00
21203;BME280;10759;51.982;9.232;2024-01-15T12:03:24;98551.91;;;1.82;100.00
21203;BME280;10759;51.982;9.232;2024-01-15T12:05:53;98550.50;;;1.99;100.00
21203;BME280;10759;51.982;9.232;2024-01-15T12:08:21;98544.31;;;1.71;100.00
21203;BME280;10759;51.982;9.232;2024-01-15T12:10:50;98530.69;;;1.85;100.00
21203;BME280;10759;51.982;9.232;2024-01-15T12:13:19;98548.81;;;1.96;100.00
21203;BME280;10759;51.982;9.232;2024-01-15T12:15:48;98540.97;;;1.95;100.00
21203;BME280;10759;51.982;9.232;2024-01-15T12:18:17;98564.25;;;2.10;100.00
21203;BME280;10759;51.982;9.232;2024-01-15T12:20:47;98554.00;;;1.99;100.00
21203;BME280;10759;51.982;9.232;2024-01-15T12:23:16;98551.53;;;1.95;100.00
21203;BME280;10759;51.982;9.232;2024-01-15T12:25:44;98550.41;;;2.02;100.00
21203;BME280;10759;51.982;9.232;2024-01-15T12:28:14;98537.81;;;1.82;100.00
21203;BME280;10759;51.982;9.232;2024-01-15T12:30:45;98547.34;;;1.87;100.00
21203;BME280;10759;51.982;9.232;2024-01-15T12:33:17;98537.28;;;1.99;100.00
21203;BME280;10759;51.982;9.232;2024-01-15T12:35:47;98541.59;;;2.01;100.00
21203;BME280;10759;51.982;9.232;2024-01-15T12:38:15;98546.91;;;2.01;100.00
21203;BME280;10759;51.982;9.232;2024-01-15T12:40:46;98541.28;;;2.12;100.00
21203;BME280;10759;51.982;9.232;2024-01-15T12:43:13;98542.25;;;2.09;100.00
21203;BME280;10759;51.982;9.232;2024-01-15T12:45:41;98543.44;;;1.99;100.00
21203;BME280;10759;51.982;9.232;2024-01-15T12:48:10;98548.06;;;1.92;100.00
21203;BME280;10759;51.982;9.232;2024-01-15T12:50:42;98553.16;;;1.99;100.00
21203;BME280;10759;51.982;9.232;2024-01-15T12:53:12;98551.72;;;1.88;100.00
21203;BME280;10759;51.982;9.232;2024-01-15T12:55:40;98544.78;;;1.84;100.00
21203;BME280;10759;51.982;9.232;2024-01-15T12:58:08;98553.38;;;1.91;100.00
21203;BME280;10759;51.982;9.232;2024-01-15T13:00:36;98550.50;;;1.99;100.00
21203;BME280;10759;51.982;9.232;2024-01-15T13:03:04;98550.50;;;1.99;100.00
21203;BME280;10759;51.982;9.232;2024-01-15T13:05:32;98549.50;;;1.75;100.00
21203;BME280;10759;51.982;9.232;2024-01-15T13:08:01;98549.09;;;1.87;100.00